sensor_id;sensor_type;location;lat;lon;timestamp;pressure;altitude;pressure_sealevel;temperature;humidity
9419;BME280;4748;50.802;7.132;2022-07-17T03:30:36;102030.03;;;13.63;100.00
9419;BME280;4748;50.802;7.132;2022-07-17T03:33:02;102036.41;;;13.49;100.00
9419;BME280;4748;50.802;7.132;2022-07-17T03:35:27;102032.72;;;13.50;100.00
9419;BME280;4748;50.802;7.132;2022-07-17T03:37:52;102033.91;;;13.34;100.00
9419;BME280;4748;50.802;7.132;2022-07-17T03:40:18;102034.72;;;13.28;100.00
9419;BME280;4748;50.802;7.132;2022-07-17T03:42:43;102034.53;;;13.30;100.00
9419;BME280;4748;50.802;7.132;2022-07-17T03:45:09;102040.56;;;13.51;100.00
9419;BME280;4748;50.802;7.132;2022-07-17T03:47:34;102038.53;;;13.60;100.00
9419;BME280;4748;50.802;7.132;2022-07-17T03:50:00;102041.41;;;13.65;100.00
9419;BME280;4748;50.802;7.132;2022-07-17T03:52:25;102040.94;;;13.48;100.00
9419;BME280;4748;50.802;7.132;2022-07-17T03:54:50;102039.91;;;13.36;100.00
9419;BME280;4748;50.802;7.132;2022-07-17T03:57:16;102044.25;;;13.44;100.00
9419;BME280;4748;50.802;7.132;2022-07-17T03:59:41;102039.31;;;13.54;100.00
9419;BME280;4748;50.802;7.132;2022-07-17T04:02:06;102050.91;;;13.61;100.00
9419;BME280;4748;50.802;7.132;2022-07-17T04:04:32;102058.16;;;13.67;100.00
9419;BME280;4748;50.802;7.132;2022-07-17T04:06:57;102056.28;;;13.61;100.00
9419;BME280;4748;50.802;7.132;2022-07-17T04:09:22;102059.81;;;13.68;100.00
9419;BME280;4748;50.802;7.132;2022-07-17T04:11:48;102060.06;;;13.73;100.00
9419;BME280;4748;50.802;7.132;2022-07-17T04:14:13;102068.75;;;13.75;100.00
9419;BME280;4748;50.802;7.132;2022-07-17T04:16:38;102073.50;;;13.79;100.00
9419;BME280;4748;50.802;7.132;2022-07-17T04:19:04;102072.47;;;13.80;100.00
9419;BME280;4748;50.802;7.132;2022-07-17T04:21:29;102070.38;;;13.69;100.00
9419;BME280;4748;50.802;7.132;2022-07-17T04:23:54;102079.09;;;13.77;100.00
9419;BME280;4748;50.802;7.132;2022-07-17T04:26:20;102076.63;;;13.82;100.00
9419;BME280;4748;50.802;7.132;2022-07-17T04:28:45;102083.03;;;13.69;100.00
9419;BME280;4748;50.802;7.132;2022-07-17T04:31:11;102076.41;;;13.90;100.00
9419;BME280;4748;50.802;7.132;2022-07-17T04:33:37;102079.09;;;14.03;100.00
9419;BME280;4748;50.802;7.132;2022-07-17T04:36:02;102078.69;;;13.93;100.00
9419;BME280;4748;50.802;7.132;2022-07-17T04:38:28;102076.25;;;14.11;100.00
9419;BME280;4748;50.802;7.132;2022-07-17T04:40:53;102070.22;;;14.28;100.00
9419;BME280;4748;50.802;7.132;2022-07-17T04:43:18;102070.22;;;14.28;100.00
9419;BME280;4748;50.802;7.132;2022-07-17T04:45:44;102079.75;;;14.31;100.00
9419;BME280;4748;50.802;7.132;2022-07-17T04:48:09;102065.44;;;14.37;100.00
9419;BME280;4748;50.802;7.132;2022-07-17T04:50:34;102069.16;;;14.36;100.00
9419;BME280;4748;50.802;7.132;2022-07-17T04:53:00;102074.28;;;14.76;100.00
9419;BME280;4748;50.802;7.132;2022-07-17T04:55:26;102072.78;;;14.80;100.00
9419;BME280;4748;50.802;7.132;2022-07-17T04:57:51;102072.75;;;14.99;100.00
9419;BME280;4748;50.802;7.132;2022-07-17T05:00:17;102060.84;;;15.13;100.00
9419;BME280;4748;50.802;7.132;2022-07-17T05:02:42;102071.84;;;15.18;100.00
9419;BME280;4748;50.802;7.132;2022-07-17T05:05:08;102074.44;;;15.44;100.00
9419;BME280;4748;50.802;7.132;2022-07-17T05:07:33;102069.75;;;15.64;100.00
9419;BME280;4748;50.802;7.132;2022-07-17T05:09:59;102077.75;;;15.77;100.00
9419;BME280;4748;50.802;7.132;2022-07-17T05:12:24;102072.91;;;16.09;100.00
9419;BME280;4748;50.802;7.132;2022-07-17T05:14:49;102079.75;;;16.12;100.00
9419;BME280;4748;50.802;7.132;2022-07-17T05:17:15;102087.00;;;16.18;100.00
9419;BME280;4748;50.802;7.132;2022-07-17T05:19:40;102086.38;;;16.16;100.00
9419;BME280;4748;50.802;7.132;2022-07-17T05:22:06;102079.16;;;16.34;100.00
9419;BME280;4748;50.802;7.132;2022-07-17T05:24:31;102081.28;;;16.32;100.00
9419;BME280;4748;50.802;7.132;2022-07-17T05:26:59;102085.06;;;16.49;100.00
9419;BME280;4748;50.802;7.132;2022-07-17T05:29:24;102078.88;;;16.42;100.00
9419;BME280;4748;50.802;7.132;2022-07-17T05:31:49;102087.28;;;16.34;100.00
9419;BME280;4748;50.802;7.132;2022-07-17T05:34:15;102078.44;;;16.45;100.00
9419;BME280;4748;50.802;7.132;2022-07-17T05:36:40;102083.13;;;16.74;100.00
9419;BME280;4748;50.802;7.132;2022-07-17T05:39:06;102089.22;;;17.23;100.00
9419;BME280;4748;50.802;7.132;2022-07-17T05:41:31;102089.81;;;17.07;100.00
9419;BME280;4748;50.802;7.132;2022-07-17T05:43:56;102090.91;;;17.53;100.00
9419;BME280;4748;50.802;7.132;2022-07-17T05:46:22;102102.06;;;17.86;100.00
9419;BME280;4748;50.802;7.132;2022-07-17T05:48:47;102107.38;;;18.21;97.53
9419;BME280;4748;50.802;7.132;2022-07-17T05:51:12;102109.53;;;18.53;95.36
9419;BME280;4748;50.802;7.132;2022-07-17T05:53:38;102106.78;;;18.88;93.17
9419;BME280;4748;50.802;7.132;2022-07-17T05:56:03;102101.09;;;19.51;88.93
9419;BME280;4748;50.802;7.132;2022-07-17T05:58:29;102110.44;;;19.04;90.92
9419;BME280;4748;50.802;7.132;2022-07-17T06:00:54;102096.31;;;19.86;86.96
9419;BME280;4748;50.802;7.132;2022-07-17T06:03:19;102103.88;;;19.56;90.99
9419;BME280;4748;50.802;7.132;2022-07-17T06:05:45;102106.19;;;20.19;86.86
9419;BME280;4748;50.802;7.132;2022-07-17T06:08:11;102109.53;;;20.59;84.06
9419;BME280;4748;50.802;7.132;2022-07-17T06:10:36;102112.50;;;20.57;82.70
9419;BME280;4748;50.802;7.132;2022-07-17T06:13:03;102105.78;;;20.27;87.69
9419;BME280;4748;50.802;7.132;2022-07-17T06:15:29;102114.03;;;20.16;89.09
9419;BME280;4748;50.802;7.132;2022-07-17T06:17:54;102113.28;;;20.20;84.35
9419;BME280;4748;50.802;7.132;2022-07-17T06:20:20;102111.00;;;19.85;91.29
9419;BME280;4748;50.802;7.132;2022-07-17T06:22:45;102122.50;;;20.03;90.16
9419;BME280;4748;50.802;7.132;2022-07-17T06:25:11;102125.44;;;19.74;91.37
9419;BME280;4748;50.802;7.132;2022-07-17T06:27:41;102112.84;;;19.84;88.41
9419;BME280;4748;50.802;7.132;2022-07-17T06:30:09;102120.94;;;19.79;88.18
9419;BME280;4748;50.802;7.132;2022-07-17T06:32:34;102123.00;;;20.00;89.96
9419;BME280;4748;50.802;7.132;2022-07-17T06:35:00;102109.91;;;19.86;90.17
9419;BME280;4748;50.802;7.132;2022-07-17T06:37:25;102106.84;;;20.26;90.06
9419;BME280;4748;50.802;7.132;2022-07-17T06:39:50;102108.47;;;20.44;86.18
9419;BME280;4748;50.802;7.132;2022-07-17T06:42:16;102106.00;;;20.42;84.45
9419;BME280;4748;50.802;7.132;2022-07-17T06:44:41;102109.31;;;20.77;84.26
9419;BME280;4748;50.802;7.132;2022-07-17T06:47:06;102109.13;;;21.04;82.26
9419;BME280;4748;50.802;7.132;2022-07-17T06:49:32;102112.88;;;21.20;80.22
9419;BME280;4748;50.802;7.132;2022-07-17T06:51:57;102108.72;;;21.12;78.55
9419;BME280;4748;50.802;7.132;2022-07-17T06:54:23;102103.19;;;20.53;77.55
9419;BME280;4748;50.802;7.132;2022-07-17T06:56:51;102102.59;;;20.68;82.38
9419;BME280;4748;50.802;7.132;2022-07-17T06:59:17;102099.50;;;20.59;81.33
9419;BME280;4748;50.802;7.132;2022-07-17T07:01:42;102094.94;;;20.81;80.64
9419;BME280;4748;50.802;7.132;2022-07-17T07:04:08;102081.03;;;21.20;79.50
9419;BME280;4748;50.802;7.132;2022-07-17T07:06:33;102086.94;;;21.39;77.92
9419;BME280;4748;50.802;7.132;2022-07-17T07:08:59;102084.22;;;21.60;76.53
9419;BME280;4748;50.802;7.132;2022-07-17T07:11:25;102070.91;;;21.42;77.82
9419;BME280;4748;50.802;7.132;2022-07-17T07:13:50;102061.69;;;21.69;76.85
9419;BME280;4748;50.802;7.132;2022-07-17T07:16:15;102075.25;;;21.91;73.82
9419;BME280;4748;50.802;7.132;2022-07-17T07:18:41;102062.47;;;21.65;74.88
9419;BME280;4748;50.802;7.132;2022-07-17T07:21:06;102071.03;;;22.09;72.60
9419;BME280;4748;50.802;7.132;2022-07-17T07:23:32;102075.22;;;22.17;70.85
9419;BME280;4748;50.802;7.132;2022-07-17T07:25:57;102080.63;;;22.38;70.62
9419;BME280;4748;50.802;7.132;2022-07-17T07:28:22;102073.16;;;22.70;68.52
9419;BME280;4748;50.802;7.132;2022-07-17T07:30:48;102064.50;;;22.37;69.00
9419;BME280;4748;50.802;7.132;2022-07-17T07:33:13;102067.69;;;22.70;69.34
9419;BME280;4748;50.802;7.132;2022-07-17T07:35:38;102070.50;;;22.80;67.90
9419;BME280;4748;50.802;7.132;2022-07-17T07:38:04;102067.34;;;22.98;66.87
9419;BME280;4748;50.802;7.132;2022-07-17T07:40:30;102087.84;;;23.00;64.46
9419;BME280;4748;50.802;7.132;2022-07-17T07:42:56;102071.34;;;23.46;63.77
9419;BME280;4748;50.802;7.132;2022-07-17T07:45:21;102064.78;;;23.47;62.65
9419;BME280;4748;50.802;7.132;2022-07-17T07:47:48;102064.16;;;23.25;61.27
9419;BME280;4748;50.802;7.132;2022-07-17T07:50:16;102053.38;;;23.75;62.86
9419;BME280;4748;50.802;7.132;2022-07-17T07:52:42;102053.84;;;23.52;63.29
9419;BME280;4748;50.802;7.132;2022-07-17T07:55:09;102046.47;;;23.62;63.65
9419;BME280;4748;50.802;7.132;2022-07-17T07:57:35;102048.47;;;23.92;62.10
9419;BME280;4748;50.802;7.132;2022-07-17T08:00:00;102046.28;;;23.74;58.04
9419;BME280;4748;50.802;7.132;2022-07-17T08:02:26;102049.00;;;23.99;60.65
9419;BME280;4748;50.802;7.132;2022-07-17T08:04:51;102051.47;;;23.90;61.10
9419;BME280;4748;50.802;7.132;2022-07-17T08:07:17;102045.44;;;23.93;59.80
9419;BME280;4748;50.802;7.132;2022-07-17T08:09:42;102038.63;;;24.35;58.71
9419;BME280;4748;50.802;7.132;2022-07-17T08:12:07;102049.53;;;24.30;57.30
9419;BME280;4748;50.802;7.132;2022-07-17T08:14:33;102046.50;;;24.32;58.80
9419;BME280;4748;50.802;7.132;2022-07-17T08:16:58;102050.88;;;24.67;57.44
9419;BME280;4748;50.802;7.132;2022-07-17T08:19:23;102049.84;;;24.14;56.33
9419;BME280;4748;50.802;7.132;2022-07-17T08:21:49;102050.53;;;24.84;56.59
9419;BME280;4748;50.802;7.132;2022-07-17T08:24:14;102048.31;;;24.91;56.23
9419;BME280;4748;50.802;7.132;2022-07-17T08:26:41;102061.03;;;24.62;56.30
9419;BME280;4748;50.802;7.132;2022-07-17T08:29:06;102059.56;;;24.84;55.93
9419;BME280;4748;50.802;7.132;2022-07-17T08:31:31;102055.56;;;24.62;55.76
9419;BME280;4748;50.802;7.132;2022-07-17T08:33:57;102059.31;;;24.86;54.47
9419;BME280;4748;50.802;7.132;2022-07-17T08:36:22;102068.00;;;25.17;54.39
9419;BME280;4748;50.802;7.132;2022-07-17T08:38:48;102071.31;;;25.10;53.25
9419;BME280;4748;50.802;7.132;2022-07-17T08:41:16;102081.72;;;25.13;51.89
9419;BME280;4748;50.802;7.132;2022-07-17T08:43:43;102082.22;;;25.24;53.83
9419;BME280;4748;50.802;7.132;2022-07-17T08:46:11;102080.38;;;25.00;50.22
9419;BME280;4748;50.802;7.132;2022-07-17T08:48:40;102075.22;;;24.89;50.32
9419;BME280;4748;50.802;7.132;2022-07-17T08:51:08;102076.22;;;25.17;51.12
9419;BME280;4748;50.802;7.132;2022-07-17T08:53:33;102062.34;;;25.47;50.44
9419;BME280;4748;50.802;7.132;2022-07-17T08:55:59;102062.81;;;25.59;50.76
9419;BME280;4748;50.802;7.132;2022-07-17T08:58:24;102062.41;;;25.37;49.90
9419;BME280;4748;50.802;7.132;2022-07-17T09:00:50;102068.19;;;25.79;48.46
9419;BME280;4748;50.802;7.132;2022-07-17T09:03:16;102071.56;;;25.71;47.99
9419;BME280;4748;50.802;7.132;2022-07-17T09:05:43;102069.19;;;25.93;48.09
9419;BME280;4748;50.802;7.132;2022-07-17T09:08:19;102064.28;;;25.90;43.35
9419;BME280;4748;50.802;7.132;2022-07-17T09:10:47;102071.00;;;25.74;46.23
9419;BME280;4748;50.802;7.132;2022-07-17T09:15:42;102066.91;;;26.05;46.41
9419;BME280;4748;50.802;7.132;2022-07-17T09:18:08;102062.88;;;26.25;45.54
9419;BME280;4748;50.802;7.132;2022-07-17T09:20:33;102073.00;;;26.35;45.86
9419;BME280;4748;50.802;7.132;2022-07-17T09:23:02;102063.50;;;26.18;44.47
9419;BME280;4748;50.802;7.132;2022-07-17T09:28:01;102073.59;;;25.94;44.26
9419;BME280;4748;50.802;7.132;2022-07-17T09:30:27;102065.94;;;25.91;45.41
9419;BME280;4748;50.802;7.132;2022-07-17T09:32:54;102069.19;;;25.93;44.17
9419;BME280;4748;50.802;7.132;2022-07-17T09:35:21;102073.09;;;26.20;44.50
9419;BME280;4748;50.802;7.132;2022-07-17T09:37:47;102062.25;;;26.00;44.73
9419;BME280;4748;50.802;7.132;2022-07-17T09:40:13;102067.00;;;26.23;44.65
9419;BME280;4748;50.802;7.132;2022-07-17T09:42:58;102058.28;;;26.49;44.20
9419;BME280;4748;50.802;7.132;2022-07-17T09:45:23;102059.34;;;26.76;43.67
9419;BME280;4748;50.802;7.132;2022-07-17T09:47:50;102071.50;;;26.47;42.84
9419;BME280;4748;50.802;7.132;2022-07-17T09:50:18;102059.16;;;26.96;43.05
9419;BME280;4748;50.802;7.132;2022-07-17T09:52:44;102063.94;;;27.09;43.61
9419;BME280;4748;50.802;7.132;2022-07-17T09:55:11;102052.81;;;27.37;42.32
9419;BME280;4748;50.802;7.132;2022-07-17T09:57:40;102052.34;;;27.72;40.67
9419;BME280;4748;50.802;7.132;2022-07-17T10:00:08;102046.00;;;27.90;40.78
9419;BME280;4748;50.802;7.132;2022-07-17T10:02:43;102054.81;;;27.74;41.22
9419;BME280;4748;50.802;7.132;2022-07-17T10:05:14;102036.44;;;27.69;39.62
9419;BME280;4748;50.802;7.132;2022-07-17T10:07:43;102038.28;;;27.55;40.79
9419;BME280;4748;50.802;7.132;2022-07-17T10:10:11;102036.25;;;27.42;41.40
9419;BME280;4748;50.802;7.132;2022-07-17T10:12:38;102052.00;;;27.19;40.01
9419;BME280;4748;50.802;7.132;2022-07-17T10:15:05;102055.09;;;27.12;40.79
9419;BME280;4748;50.802;7.132;2022-07-17T10:17:31;102060.44;;;27.04;41.79
9419;BME280;4748;50.802;7.132;2022-07-17T10:19:57;102060.25;;;27.19;41.69
9419;BME280;4748;50.802;7.132;2022-07-17T10:22:23;102056.16;;;27.16;40.81
9419;BME280;4748;50.802;7.132;2022-07-17T10:24:55;102054.81;;;27.32;38.89
9419;BME280;4748;50.802;7.132;2022-07-17T10:27:23;102051.25;;;27.13;40.89
9419;BME280;4748;50.802;7.132;2022-07-17T10:30:06;102052.44;;;27.26;38.12
9419;BME280;4748;50.802;7.132;2022-07-17T10:32:33;102051.97;;;27.00;40.77
9419;BME280;4748;50.802;7.132;2022-07-17T10:40:20;102031.34;;;27.39;37.42
9419;BME280;4748;50.802;7.132;2022-07-17T10:43:02;102035.66;;;27.45;37.26
9419;BME280;4748;50.802;7.132;2022-07-17T10:45:32;102041.06;;;27.32;39.45
9419;BME280;4748;50.802;7.132;2022-07-17T10:55:26;102037.06;;;27.43;38.77
9419;BME280;4748;50.802;7.132;2022-07-17T10:57:51;102033.53;;;27.61;38.08
9419;BME280;4748;50.802;7.132;2022-07-17T11:00:17;102038.09;;;27.28;36.12
9419;BME280;4748;50.802;7.132;2022-07-17T11:02:43;102036.00;;;27.62;38.12
9419;BME280;4748;50.802;7.132;2022-07-17T11:05:10;102023.78;;;27.68;37.44
9419;BME280;4748;50.802;7.132;2022-07-17T11:07:57;102036.06;;;27.57;35.24
9419;BME280;4748;50.802;7.132;2022-07-17T11:10:25;102028.28;;;27.41;36.54
9419;BME280;4748;50.802;7.132;2022-07-17T11:12:54;102025.47;;;27.46;36.35
9419;BME280;4748;50.802;7.132;2022-07-17T11:15:21;102029.50;;;27.72;36.53
9419;BME280;4748;50.802;7.132;2022-07-17T11:17:48;102029.44;;;27.58;36.22
9419;BME280;4748;50.802;7.132;2022-07-17T11:20:14;102033.28;;;27.57;36.01
9419;BME280;4748;50.802;7.132;2022-07-17T11:22:40;102028.53;;;27.63;36.55
9419;BME280;4748;50.802;7.132;2022-07-17T11:25:07;102021.22;;;27.72;37.41
9419;BME280;4748;50.802;7.132;2022-07-17T11:27:34;102026.81;;;27.67;37.10
9419;BME280;4748;50.802;7.132;2022-07-17T11:30:01;102024.22;;;27.75;36.87
9419;BME280;4748;50.802;7.132;2022-07-17T11:32:37;102027.13;;;27.65;34.43
9419;BME280;4748;50.802;7.132;2022-07-17T11:35:14;102027.44;;;27.64;33.74
9419;BME280;4748;50.802;7.132;2022-07-17T11:37:39;102027.13;;;27.65;36.57
9419;BME280;4748;50.802;7.132;2022-07-17T11:40:05;102021.19;;;27.58;36.48
9419;BME280;4748;50.802;7.132;2022-07-17T11:42:31;102017.69;;;27.84;36.48
9419;BME280;4748;50.802;7.132;2022-07-17T11:44:56;102012.81;;;27.81;36.23
9419;BME280;4748;50.802;7.132;2022-07-17T11:47:24;102008.97;;;27.64;37.18
9419;BME280;4748;50.802;7.132;2022-07-17T11:49:52;102010.59;;;27.65;35.96
9419;BME280;4748;50.802;7.132;2022-07-17T11:52:19;102011.81;;;27.59;35.91
9419;BME280;4748;50.802;7.132;2022-07-17T11:54:46;101999.03;;;27.45;36.99
9419;BME280;4748;50.802;7.132;2022-07-17T11:57:12;102002.94;;;27.62;36.47
9419;BME280;4748;50.802;7.132;2022-07-17T11:59:38;102004.22;;;27.83;36.44
9419;BME280;4748;50.802;7.132;2022-07-17T12:02:28;102000.84;;;27.73;35.19
9419;BME280;4748;50.802;7.132;2022-07-17T12:04:56;102001.13;;;27.71;36.97
9419;BME280;4748;50.802;7.132;2022-07-17T12:07:23;102000.63;;;27.69;36.22
9419;BME280;4748;50.802;7.132;2022-07-17T12:09:49;101997.81;;;27.87;36.89
9419;BME280;4748;50.802;7.132;2022-07-17T12:12:25;101988.97;;;27.90;35.28
9419;BME280;4748;50.802;7.132;2022-07-17T12:14:56;101981.28;;;27.87;35.56
9419;BME280;4748;50.802;7.132;2022-07-17T12:17:37;101997.00;;;27.87;35.48
9419;BME280;4748;50.802;7.132;2022-07-17T12:20:03;101989.47;;;28.11;36.36
9419;BME280;4748;50.802;7.132;2022-07-17T12:22:30;101996.06;;;28.10;36.08
9419;BME280;4748;50.802;7.132;2022-07-17T12:24:56;101993.38;;;28.36;35.46
9419;BME280;4748;50.802;7.132;2022-07-17T12:27:21;101985.94;;;28.50;35.94
9419;BME280;4748;50.802;7.132;2022-07-17T12:29:49;101980.28;;;28.15;36.08
9419;BME280;4748;50.802;7.132;2022-07-17T12:32:16;101983.19;;;28.64;35.76
9419;BME280;4748;50.802;7.132;2022-07-17T12:34:47;101984.00;;;28.64;34.57
9419;BME280;4748;50.802;7.132;2022-07-17T12:37:14;101973.56;;;28.48;35.80
9419;BME280;4748;50.802;7.132;2022-07-17T12:39:41;101972.25;;;28.45;35.56
9419;BME280;4748;50.802;7.132;2022-07-17T12:42:06;101970.63;;;28.44;35.66
9419;BME280;4748;50.802;7.132;2022-07-17T12:44:33;101969.28;;;28.42;35.86
9419;BME280;4748;50.802;7.132;2022-07-17T12:46:59;101972.34;;;28.40;35.43
9419;BME280;4748;50.802;7.132;2022-07-17T12:49:24;101970.22;;;28.51;35.64
9419;BME280;4748;50.802;7.132;2022-07-17T12:51:50;101964.19;;;28.62;35.28
9419;BME280;4748;50.802;7.132;2022-07-17T12:54:16;101957.06;;;28.61;34.66
9419;BME280;4748;50.802;7.132;2022-07-17T12:56:41;101956.44;;;28.64;34.73
9419;BME280;4748;50.802;7.132;2022-07-17T12:59:07;101953.88;;;28.54;34.37
9419;BME280;4748;50.802;7.132;2022-07-17T13:01:33;101952.03;;;28.36;34.67
9419;BME280;4748;50.802;7.132;2022-07-17T13:03:59;101948.25;;;28.46;34.32
9419;BME280;4748;50.802;7.132;2022-07-17T13:06:25;101950.03;;;28.69;34.41
9419;BME280;4748;50.802;7.132;2022-07-17T13:08:50;101950.38;;;28.62;34.17
9419;BME280;4748;50.802;7.132;2022-07-17T13:11:16;101954.38;;;28.56;33.84
9419;BME280;4748;50.802;7.132;2022-07-17T13:13:41;101952.66;;;28.60;33.73
9419;BME280;4748;50.802;7.132;2022-07-17T13:16:06;101947.66;;;28.76;33.89
9419;BME280;4748;50.802;7.132;2022-07-17T13:18:32;101949.91;;;28.60;33.37
9419;BME280;4748;50.802;7.132;2022-07-17T13:20:57;101942.88;;;28.81;33.36
9419;BME280;4748;50.802;7.132;2022-07-17T13:23:23;101940.50;;;28.75;32.94
9419;BME280;4748;50.802;7.132;2022-07-17T13:25:48;101943.00;;;28.98;33.06
9419;BME280;4748;50.802;7.132;2022-07-17T13:28:14;101936.63;;;28.76;33.24
9419;BME280;4748;50.802;7.132;2022-07-17T13:30:39;101939.88;;;28.91;32.99
9419;BME280;4748;50.802;7.132;2022-07-17T13:33:05;101932.06;;;29.06;33.24
9419;BME280;4748;50.802;7.132;2022-07-17T13:35:31;101937.16;;;29.13;32.57
9419;BME280;4748;50.802;7.132;2022-07-17T13:37:56;101931.38;;;29.36;32.71
9419;BME280;4748;50.802;7.132;2022-07-17T13:40:23;101921.59;;;29.30;32.25
9419;BME280;4748;50.802;7.132;2022-07-17T13:42:51;101922.16;;;29.62;32.89
9419;BME280;4748;50.802;7.132;2022-07-17T13:45:16;101927.69;;;29.84;33.03
9419;BME280;4748;50.802;7.132;2022-07-17T13:47:42;101917.63;;;29.44;32.72
9419;BME280;4748;50.802;7.132;2022-07-17T13:50:08;101934.16;;;29.58;32.79
9419;BME280;4748;50.802;7.132;2022-07-17T13:52:35;101921.00;;;29.20;32.92
9419;BME280;4748;50.802;7.132;2022-07-17T13:55:01;101919.53;;;29.36;33.00
9419;BME280;4748;50.802;7.132;2022-07-17T13:57:26;101916.44;;;29.37;33.33
9419;BME280;4748;50.802;7.132;2022-07-17T13:59:52;101919.03;;;29.55;32.99
9419;BME280;4748;50.802;7.132;2022-07-17T14:02:17;101910.75;;;29.34;32.53
9419;BME280;4748;50.802;7.132;2022-07-17T14:04:43;101915.88;;;29.27;33.00
9419;BME280;4748;50.802;7.132;2022-07-17T14:07:08;101907.34;;;29.37;32.72
9419;BME280;4748;50.802;7.132;2022-07-17T14:09:34;101912.31;;;29.48;32.59
9419;BME280;4748;50.802;7.132;2022-07-17T14:11:59;101907.88;;;29.25;32.59
9419;BME280;4748;50.802;7.132;2022-07-17T14:14:25;101908.00;;;29.20;33.14
9419;BME280;4748;50.802;7.132;2022-07-17T14:16:50;101904.72;;;29.53;32.96
9419;BME280;4748;50.802;7.132;2022-07-17T14:19:16;101896.00;;;29.38;32.11
9419;BME280;4748;50.802;7.132;2022-07-17T14:21:41;101899.19;;;29.32;32.19
9419;BME280;4748;50.802;7.132;2022-07-17T14:24:07;101898.03;;;29.54;32.31
9419;BME280;4748;50.802;7.132;2022-07-17T14:26:34;101893.47;;;29.72;32.02
9419;BME280;4748;50.802;7.132;2022-07-17T14:28:59;101896.41;;;29.75;31.80
9419;BME280;4748;50.802;7.132;2022-07-17T14:31:25;101896.78;;;29.60;31.84
9419;BME280;4748;50.802;7.132;2022-07-17T14:33:51;101895.06;;;29.42;31.12
9419;BME280;4748;50.802;7.132;2022-07-17T14:36:16;101897.94;;;29.59;32.15
9419;BME280;4748;50.802;7.132;2022-07-17T14:38:42;101890.72;;;29.50;31.75
9419;BME280;4748;50.802;7.132;2022-07-17T14:41:07;101893.78;;;29.48;31.59
9419;BME280;4748;50.802;7.132;2022-07-17T14:43:33;101892.47;;;29.46;31.52
9419;BME280;4748;50.802;7.132;2022-07-17T14:45:58;101891.75;;;29.40;30.97
9419;BME280;4748;50.802;7.132;2022-07-17T14:48:24;101887.19;;;29.36;30.96
9419;BME280;4748;50.802;7.132;2022-07-17T14:50:49;101880.84;;;29.57;31.27
9419;BME280;4748;50.802;7.132;2022-07-17T14:53:15;101887.63;;;29.73;31.15
9419;BME280;4748;50.802;7.132;2022-07-17T14:55:40;101878.75;;;29.63;30.94
9419;BME280;4748;50.802;7.132;2022-07-17T14:58:06;101868.53;;;29.85;30.38
9419;BME280;4748;50.802;7.132;2022-07-17T15:00:31;101868.69;;;29.88;30.16
9419;BME280;4748;50.802;7.132;2022-07-17T15:02:56;101862.50;;;30.22;31.28
9419;BME280;4748;50.802;7.132;2022-07-17T15:05:22;101859.19;;;30.03;30.42
9419;BME280;4748;50.802;7.132;2022-07-17T15:07:48;101860.91;;;30.29;30.65
9419;BME280;4748;50.802;7.132;2022-07-17T15:10:13;101861.13;;;30.41;30.43
9419;BME280;4748;50.802;7.132;2022-07-17T15:12:38;101854.31;;;30.47;30.31
9419;BME280;4748;50.802;7.132;2022-07-17T15:15:04;101862.88;;;30.29;30.52
9419;BME280;4748;50.802;7.132;2022-07-17T15:17:31;101856.56;;;30.37;30.83
9419;BME280;4748;50.802;7.132;2022-07-17T15:19:56;101851.53;;;30.39;30.41
9419;BME280;4748;50.802;7.132;2022-07-17T15:22:21;101852.19;;;30.52;30.95
9419;BME280;4748;50.802;7.132;2022-07-17T15:24:47;101858.03;;;30.51;30.74
9419;BME280;4748;50.802;7.132;2022-07-17T15:27:12;101861.69;;;30.13;30.47
9419;BME280;4748;50.802;7.132;2022-07-17T15:29:38;101858.78;;;30.26;30.30
9419;BME280;4748;50.802;7.132;2022-07-17T15:32:04;101848.47;;;30.48;30.46
9419;BME280;4748;50.802;7.132;2022-07-17T15:34:29;101846.28;;;30.29;30.30
9419;BME280;4748;50.802;7.132;2022-07-17T15:36:55;101840.50;;;30.55;30.71
9419;BME280;4748;50.802;7.132;2022-07-17T15:39:20;101833.81;;;30.65;30.67
9419;BME280;4748;50.802;7.132;2022-07-17T15:41:46;101832.84;;;30.78;30.50
9419;BME280;4748;50.802;7.132;2022-07-17T15:44:12;101822.28;;;31.22;30.30
9419;BME280;4748;50.802;7.132;2022-07-17T15:46:37;101823.78;;;31.19;29.57
9419;BME280;4748;50.802;7.132;2022-07-17T15:49:03;101816.59;;;31.18;30.06
9419;BME280;4748;50.802;7.132;2022-07-17T15:51:29;101811.50;;;31.29;30.24
9419;BME280;4748;50.802;7.132;2022-07-17T15:53:55;101814.63;;;31.10;31.00
9419;BME280;4748;50.802;7.132;2022-07-17T15:56:22;101803.72;;;31.31;31.16
9419;BME280;4748;50.802;7.132;2022-07-17T15:58:47;101798.53;;;31.12;31.32
9419;BME280;4748;50.802;7.132;2022-07-17T16:01:13;101801.44;;;31.16;31.16
9419;BME280;4748;50.802;7.132;2022-07-17T16:03:38;101796.66;;;31.50;31.46
9419;BME280;4748;50.802;7.132;2022-07-17T16:06:04;101797.34;;;31.84;31.56
9419;BME280;4748;50.802;7.132;2022-07-17T16:08:29;101799.00;;;31.77;32.18
9419;BME280;4748;50.802;7.132;2022-07-17T16:10:54;101799.19;;;31.80;31.74
9419;BME280;4748;50.802;7.132;2022-07-17T16:13:20;101800.28;;;31.96;31.79
9419;BME280;4748;50.802;7.132;2022-07-17T16:15:45;101791.28;;;31.91;32.02
9419;BME280;4748;50.802;7.132;2022-07-17T16:18:11;101788.69;;;32.23;32.30
9419;BME280;4748;50.802;7.132;2022-07-17T16:20:36;101790.09;;;32.57;31.41
9419;BME280;4748;50.802;7.132;2022-07-17T16:23:02;101789.16;;;32.53;31.58
9419;BME280;4748;50.802;7.132;2022-07-17T16:25:27;101793.09;;;32.53;32.11
9419;BME280;4748;50.802;7.132;2022-07-17T16:27:53;101783.88;;;32.81;31.53
9419;BME280;4748;50.802;7.132;2022-07-17T16:30:19;101792.81;;;32.46;31.65
9419;BME280;4748;50.802;7.132;2022-07-17T16:32:44;101780.75;;;32.82;31.85
9419;BME280;4748;50.802;7.132;2022-07-17T16:35:10;101780.88;;;32.86;31.63
9419;BME280;4748;50.802;7.132;2022-07-17T16:37:36;101778.59;;;32.67;32.29
9419;BME280;4748;50.802;7.132;2022-07-17T16:40:01;101777.75;;;32.87;31.72
9419;BME280;4748;50.802;7.132;2022-07-17T16:42:27;101779.66;;;32.95;31.92
9419;BME280;4748;50.802;7.132;2022-07-17T16:44:53;101778.56;;;32.96;32.15
9419;BME280;4748;50.802;7.132;2022-07-17T16:47:18;101784.34;;;33.35;31.82
9419;BME280;4748;50.802;7.132;2022-07-17T16:49:45;101776.69;;;33.00;31.97
9419;BME280;4748;50.802;7.132;2022-07-17T16:52:10;101777.47;;;33.21;31.42